sensor_id;sensor_type;location;lat;lon;timestamp;pressure;altitude;pressure_sealevel;temperature;humidity
56876;BME280;42622;49.972;8.452;2022-11-24T00:01:06;99797.19;;;4.33;100.00
56876;BME280;42622;49.972;8.452;2022-11-24T00:03:34;99798.66;;;4.39;100.00
56876;BME280;42622;49.972;8.452;2022-11-24T00:06:08;99800.16;;;4.43;100.00
56876;BME280;42622;49.972;8.452;2022-11-24T00:08:37;99805.94;;;4.49;100.00
56876;BME280;42622;49.972;8.452;2022-11-24T00:11:09;99807.44;;;4.53;100.00
56876;BME280;42622;49.972;8.452;2022-11-24T00:13:39;99803.75;;;4.58;100.00
56876;BME280;42622;49.972;8.452;2022-11-24T00:18:41;99802.13;;;4.55;100.00
56876;BME280;42622;49.972;8.452;2022-11-24T00:21:09;99807.34;;;4.55;100.00
56876;BME280;42622;49.972;8.452;2022-11-24T00:23:36;99801.22;;;4.56;100.00
56876;BME280;42622;49.972;8.452;2022-11-24T00:26:11;99809.06;;;4.56;100.00
56876;BME280;42622;49.972;8.452;2022-11-24T00:28:40;99819.44;;;4.58;100.00
56876;BME280;42622;49.972;8.452;2022-11-24T00:34:01;99818.50;;;4.59;100.00
56876;BME280;42622;49.972;8.452;2022-11-24T00:36:32;99827.81;;;4.64;100.00
56876;BME280;42622;49.972;8.452;2022-11-24T00:39:08;99829.94;;;4.73;100.00
56876;BME280;42622;49.972;8.452;2022-11-24T00:41:37;99836.63;;;4.79;100.00
56876;BME280;42622;49.972;8.452;2022-11-24T00:44:04;99835.53;;;4.83;100.00
56876;BME280;42622;49.972;8.452;2022-11-24T00:46:30;99838.78;;;4.88;100.00
56876;BME280;42622;49.972;8.452;2022-11-24T00:48:56;99845.78;;;4.88;100.00
56876;BME280;42622;49.972;8.452;2022-11-24T00:51:25;99849.31;;;4.87;100.00
56876;BME280;42622;49.972;8.452;2022-11-24T00:53:55;99845.69;;;4.89;100.00
56876;BME280;42622;49.972;8.452;2022-11-24T00:56:22;99838.25;;;4.97;100.00
56876;BME280;42622;49.972;8.452;2022-11-24T00:58:49;99849.25;;;5.04;100.00
56876;BME280;42622;49.972;8.452;2022-11-24T01:01:22;99856.94;;;5.07;100.00
56876;BME280;42622;49.972;8.452;2022-11-24T01:03:50;99868.00;;;5.12;100.00
56876;BME280;42622;49.972;8.452;2022-11-24T01:06:20;99867.00;;;5.15;100.00
56876;BME280;42622;49.972;8.452;2022-11-24T01:08:47;99859.91;;;5.17;100.00
56876;BME280;42622;49.972;8.452;2022-11-24T01:11:16;99872.75;;;5.21;100.00
56876;BME280;42622;49.972;8.452;2022-11-24T01:13:48;99873.53;;;5.23;100.00
56876;BME280;42622;49.972;8.452;2022-11-24T01:16:33;99876.47;;;5.17;100.00
56876;BME280;42622;49.972;8.452;2022-11-24T01:19:00;99883.56;;;5.15;100.00
56876;BME280;42622;49.972;8.452;2022-11-24T01:21:28;99883.56;;;5.15;100.00
56876;BME280;42622;49.972;8.452;2022-11-24T01:23:53;99885.28;;;5.16;100.00
56876;BME280;42622;49.972;8.452;2022-11-24T01:26:21;99886.19;;;5.15;100.00
56876;BME280;42622;49.972;8.452;2022-11-24T01:28:53;99895.91;;;5.13;100.00
56876;BME280;42622;49.972;8.452;2022-11-24T01:31:25;99890.16;;;5.07;100.00
56876;BME280;42622;49.972;8.452;2022-11-24T01:33:52;99900.13;;;5.00;100.00
56876;BME280;42622;49.972;8.452;2022-11-24T01:36:19;99898.59;;;4.96;100.00
56876;BME280;42622;49.972;8.452;2022-11-24T01:38:45;99889.97;;;4.94;100.00
56876;BME280;42622;49.972;8.452;2022-11-24T01:41:23;99902.22;;;4.93;100.00
56876;BME280;42622;49.972;8.452;2022-11-24T01:43:52;99902.31;;;4.92;100.00
56876;BME280;42622;49.972;8.452;2022-11-24T01:49:15;99901.84;;;4.84;100.00
56876;BME280;42622;49.972;8.452;2022-11-24T01:52:12;99904.81;;;4.77;100.00
56876;BME280;42622;49.972;8.452;2022-11-24T01:54:54;99904.81;;;4.77;100.00
56876;BME280;42622;49.972;8.452;2022-11-24T01:57:29;99896.06;;;4.77;100.00
56876;BME280;42622;49.972;8.452;2022-11-24T02:00:07;99904.47;;;4.84;100.00
56876;BME280;42622;49.972;8.452;2022-11-24T02:02:37;99911.16;;;4.89;100.00
56876;BME280;42622;49.972;8.452;2022-11-24T02:05:45;99917.09;;;4.93;100.00
56876;BME280;42622;49.972;8.452;2022-11-24T02:08:42;99917.19;;;4.91;100.00
56876;BME280;42622;49.972;8.452;2022-11-24T02:11:13;99917.41;;;4.87;100.00
56876;BME280;42622;49.972;8.452;2022-11-24T02:13:41;99917.41;;;4.87;100.00
56876;BME280;42622;49.972;8.452;2022-11-24T02:16:11;99918.34;;;4.86;100.00
56876;BME280;42622;49.972;8.452;2022-11-24T02:18:39;99916.56;;;4.86;100.00
56876;BME280;42622;49.972;8.452;2022-11-24T02:21:09;99913.88;;;4.88;100.00
56876;BME280;42622;49.972;8.452;2022-11-24T02:24:18;99913.19;;;4.84;100.00
56876;BME280;42622;49.972;8.452;2022-11-24T02:26:56;99906.25;;;4.83;100.00
56876;BME280;42622;49.972;8.452;2022-11-24T02:29:22;99914.25;;;4.80;100.00
56876;BME280;42622;49.972;8.452;2022-11-24T02:31:56;99913.72;;;4.73;100.00
56876;BME280;42622;49.972;8.452;2022-11-24T02:34:25;99908.19;;;4.62;100.00
56876;BME280;42622;49.972;8.452;2022-11-24T02:36:51;99908.34;;;4.59;100.00
56876;BME280;42622;49.972;8.452;2022-11-24T02:39:17;99906.06;;;4.53;100.00
56876;BME280;42622;49.972;8.452;2022-11-24T02:41:53;99908.91;;;4.48;100.00
56876;BME280;42622;49.972;8.452;2022-11-24T02:44:28;99910.00;;;4.44;100.00
56876;BME280;42622;49.972;8.452;2022-11-24T02:47:18;99918.88;;;4.42;100.00
56876;BME280;42622;49.972;8.452;2022-11-24T02:49:44;99915.06;;;4.30;100.00
56876;BME280;42622;49.972;8.452;2022-11-24T02:52:10;99910.22;;;4.22;100.00
56876;BME280;42622;49.972;8.452;2022-11-24T02:54:35;99919.16;;;4.18;100.00
56876;BME280;42622;49.972;8.452;2022-11-24T02:57:01;99911.59;;;4.12;100.00
56876;BME280;42622;49.972;8.452;2022-11-24T02:59:27;99914.47;;;4.07;100.00
56876;BME280;42622;49.972;8.452;2022-11-24T03:01:52;99912.22;;;4.00;100.00
56876;BME280;42622;49.972;8.452;2022-11-24T03:04:18;99926.38;;;3.96;100.00
56876;BME280;42622;49.972;8.452;2022-11-24T03:06:44;99916.06;;;3.93;100.00
56876;BME280;42622;49.972;8.452;2022-11-24T03:09:10;99930.19;;;3.89;100.00
56876;BME280;42622;49.972;8.452;2022-11-24T03:11:38;99936.47;;;3.84;100.00
56876;BME280;42622;49.972;8.452;2022-11-24T03:14:05;99931.47;;;3.80;100.00
56876;BME280;42622;49.972;8.452;2022-11-24T03:16:32;99931.75;;;3.74;100.00
56876;BME280;42622;49.972;8.452;2022-11-24T03:18:58;99938.16;;;3.68;100.00
56876;BME280;42622;49.972;8.452;2022-11-24T03:21:24;99939.03;;;3.67;100.00
56876;BME280;42622;49.972;8.452;2022-11-24T03:23:51;99942.72;;;3.63;100.00
56876;BME280;42622;49.972;8.452;2022-11-24T03:26:21;99933.47;;;3.56;100.00
56876;BME280;42622;49.972;8.452;2022-11-24T03:28:49;99931.19;;;3.50;100.00
56876;BME280;42622;49.972;8.452;2022-11-24T03:31:17;99942.75;;;3.44;100.00
56876;BME280;42622;49.972;8.452;2022-11-24T03:33:42;99936.03;;;3.39;100.00
56876;BME280;42622;49.972;8.452;2022-11-24T03:36:08;99925.72;;;3.35;100.00
56876;BME280;42622;49.972;8.452;2022-11-24T03:38:34;99922.97;;;3.39;100.00
56876;BME280;42622;49.972;8.452;2022-11-24T03:41:00;99932.53;;;3.40;100.00
56876;BME280;42622;49.972;8.452;2022-11-24T03:43:26;99929.97;;;3.38;100.00
56876;BME280;42622;49.972;8.452;2022-11-24T03:45:51;99945.41;;;3.43;100.00
56876;BME280;42622;49.972;8.452;2022-11-24T03:48:18;99935.91;;;3.42;100.00
56876;BME280;42622;49.972;8.452;2022-11-24T03:50:58;99941.81;;;3.45;100.00
56876;BME280;42622;49.972;8.452;2022-11-24T03:53:29;99946.50;;;3.57;100.00
56876;BME280;42622;49.972;8.452;2022-11-24T03:55:56;99939.97;;;3.66;100.00
56876;BME280;42622;49.972;8.452;2022-11-24T03:58:23;99941.31;;;3.75;100.00
56876;BME280;42622;49.972;8.452;2022-11-24T04:00:51;99946.31;;;3.79;100.00
56876;BME280;42622;49.972;8.452;2022-11-24T04:03:18;99945.13;;;3.87;100.00
56876;BME280;42622;49.972;8.452;2022-11-24T04:05:46;99953.06;;;4.02;100.00
56876;BME280;42622;49.972;8.452;2022-11-24T04:08:13;99948.91;;;4.16;100.00
56876;BME280;42622;49.972;8.452;2022-11-24T04:10:39;99954.25;;;4.31;100.00
56876;BME280;42622;49.972;8.452;2022-11-24T04:13:15;99942.09;;;4.48;100.00
56876;BME280;42622;49.972;8.452;2022-11-24T04:15:43;99950.25;;;4.59;100.00
56876;BME280;42622;49.972;8.452;2022-11-24T04:18:11;99952.25;;;4.71;100.00
56876;BME280;42622;49.972;8.452;2022-11-24T04:20:39;99958.72;;;4.82;100.00
56876;BME280;42622;49.972;8.452;2022-11-24T04:23:07;99964.31;;;4.91;100.00
56876;BME280;42622;49.972;8.452;2022-11-24T04:25:34;99958.53;;;5.02;100.00
56876;BME280;42622;49.972;8.452;2022-11-24T04:28:01;99957.78;;;5.16;100.00
56876;BME280;42622;49.972;8.452;2022-11-24T04:30:28;99963.16;;;5.30;100.00
56876;BME280;42622;49.972;8.452;2022-11-24T04:32:54;99962.38;;;5.44;100.00
56876;BME280;42622;49.972;8.452;2022-11-24T04:35:21;99971.22;;;5.59;100.00
56876;BME280;42622;49.972;8.452;2022-11-24T04:37:47;99978.13;;;5.75;100.00
56876;BME280;42622;49.972;8.452;2022-11-24T04:40:13;99980.00;;;5.89;100.00
56876;BME280;42622;49.972;8.452;2022-11-24T04:42:40;99982.06;;;6.00;100.00
56876;BME280;42622;49.972;8.452;2022-11-24T04:45:07;99985.00;;;6.10;100.00
56876;BME280;42622;49.972;8.452;2022-11-24T04:47:33;99981.78;;;6.20;100.00
56876;BME280;42622;49.972;8.452;2022-11-24T04:49:59;99979.47;;;6.30;100.00
56876;BME280;42622;49.972;8.452;2022-11-24T04:52:25;99976.50;;;6.36;100.00
56876;BME280;42622;49.972;8.452;2022-11-24T04:54:51;99983.16;;;6.42;100.00
56876;BME280;42622;49.972;8.452;2022-11-24T04:57:20;99980.28;;;6.46;100.00
56876;BME280;42622;49.972;8.452;2022-11-24T04:59:49;99985.53;;;6.46;100.00
56876;BME280;42622;49.972;8.452;2022-11-24T05:02:15;99985.44;;;6.48;100.00
56876;BME280;42622;49.972;8.452;2022-11-24T05:04:41;99983.84;;;6.45;100.00
56876;BME280;42622;49.972;8.452;2022-11-24T05:07:13;99981.03;;;6.49;100.00
56876;BME280;42622;49.972;8.452;2022-11-24T05:09:40;99987.91;;;6.51;100.00
56876;BME280;42622;49.972;8.452;2022-11-24T05:12:26;99994.84;;;6.52;100.00
56876;BME280;42622;49.972;8.452;2022-11-24T05:14:57;99998.97;;;6.56;100.00
56876;BME280;42622;49.972;8.452;2022-11-24T05:17:34;99996.00;;;6.62;100.00
56876;BME280;42622;49.972;8.452;2022-11-24T05:20:01;100005.50;;;6.65;100.00
56876;BME280;42622;49.972;8.452;2022-11-24T05:22:28;100002.59;;;6.69;100.00
56876;BME280;42622;49.972;8.452;2022-11-24T05:24:54;100013.09;;;6.69;100.00
56876;BME280;42622;49.972;8.452;2022-11-24T05:27:20;100018.06;;;6.74;100.00
56876;BME280;42622;49.972;8.452;2022-11-24T05:29:48;100023.16;;;6.77;100.00
56876;BME280;42622;49.972;8.452;2022-11-24T05:32:13;100019.84;;;6.74;100.00
56876;BME280;42622;49.972;8.452;2022-11-24T05:34:39;100020.03;;;6.70;100.00
56876;BME280;42622;49.972;8.452;2022-11-24T05:37:05;100020.88;;;6.71;100.00
56876;BME280;42622;49.972;8.452;2022-11-24T05:39:35;100023.41;;;6.73;100.00
56876;BME280;42622;49.972;8.452;2022-11-24T05:42:04;100034.78;;;6.73;100.00
56876;BME280;42622;49.972;8.452;2022-11-24T05:44:49;100030.00;;;6.80;100.00
56876;BME280;42622;49.972;8.452;2022-11-24T05:47:16;100026.25;;;6.84;100.00
56876;BME280;42622;49.972;8.452;2022-11-24T05:49:42;100030.56;;;6.85;100.00
56876;BME280;42622;49.972;8.452;2022-11-24T05:52:08;100036.41;;;6.90;100.00
56876;BME280;42622;49.972;8.452;2022-11-24T05:54:35;100029.28;;;6.92;100.00
56876;BME280;42622;49.972;8.452;2022-11-24T05:57:00;100045.03;;;6.92;100.00
56876;BME280;42622;49.972;8.452;2022-11-24T05:59:26;100034.63;;;6.90;100.00
56876;BME280;42622;49.972;8.452;2022-11-24T06:01:52;100031.16;;;6.90;100.00
56876;BME280;42622;49.972;8.452;2022-11-24T06:04:17;100039.78;;;6.92;100.00
56876;BME280;42622;49.972;8.452;2022-11-24T06:06:45;100027.69;;;6.89;100.00
56876;BME280;42622;49.972;8.452;2022-11-24T06:09:11;100029.28;;;6.92;100.00
56876;BME280;42622;49.972;8.452;2022-11-24T06:11:37;100037.94;;;6.94;100.00
56876;BME280;42622;49.972;8.452;2022-11-24T06:14:03;100037.94;;;6.94;100.00
56876;BME280;42622;49.972;8.452;2022-11-24T06:16:28;100033.63;;;6.93;100.00
56876;BME280;42622;49.972;8.452;2022-11-24T06:18:54;100036.03;;;6.96;100.00
56876;BME280;42622;49.972;8.452;2022-11-24T06:21:20;100037.66;;;6.99;100.00
56876;BME280;42622;49.972;8.452;2022-11-24T06:23:49;100041.28;;;6.96;100.00
56876;BME280;42622;49.972;8.452;2022-11-24T06:26:14;100045.63;;;6.97;100.00
56876;BME280;42622;49.972;8.452;2022-11-24T06:28:42;100045.63;;;6.97;100.00
56876;BME280;42622;49.972;8.452;2022-11-24T06:31:09;100040.38;;;6.97;100.00
56876;BME280;42622;49.972;8.452;2022-11-24T06:33:37;100054.19;;;7.01;100.00
56876;BME280;42622;49.972;8.452;2022-11-24T06:36:07;100053.06;;;7.05;100.00
56876;BME280;42622;49.972;8.452;2022-11-24T06:38:35;100055.69;;;7.05;100.00
56876;BME280;42622;49.972;8.452;2022-11-24T06:41:05;100060.09;;;7.04;100.00
56876;BME280;42622;49.972;8.452;2022-11-24T06:43:33;100060.28;;;7.01;100.00
56876;BME280;42622;49.972;8.452;2022-11-24T06:46:01;100055.97;;;7.00;100.00
56876;BME280;42622;49.972;8.452;2022-11-24T06:48:27;100065.53;;;7.01;100.00
56876;BME280;42622;49.972;8.452;2022-11-24T06:50:59;100069.00;;;7.02;100.00
56876;BME280;42622;49.972;8.452;2022-11-24T06:53:29;100060.44;;;6.98;100.00
56876;BME280;42622;49.972;8.452;2022-11-24T06:55:59;100067.56;;;6.96;100.00
56876;BME280;42622;49.972;8.452;2022-11-24T06:58:26;100062.31;;;6.96;100.00
56876;BME280;42622;49.972;8.452;2022-11-24T07:00:53;100078.28;;;6.93;100.00
56876;BME280;42622;49.972;8.452;2022-11-24T07:03:18;100084.56;;;6.90;100.00
56876;BME280;42622;49.972;8.452;2022-11-24T07:05:45;100082.00;;;6.89;100.00
56876;BME280;42622;49.972;8.452;2022-11-24T07:08:11;100092.72;;;6.86;100.00
56876;BME280;42622;49.972;8.452;2022-11-24T07:10:37;100101.34;;;6.88;100.00
56876;BME280;42622;49.972;8.452;2022-11-24T07:13:06;100099.66;;;6.87;100.00
56876;BME280;42622;49.972;8.452;2022-11-24T07:15:33;100103.22;;;6.86;100.00
56876;BME280;42622;49.972;8.452;2022-11-24T07:17:58;100111.09;;;6.86;100.00
56876;BME280;42622;49.972;8.452;2022-11-24T07:20:24;100111.09;;;6.86;100.00
56876;BME280;42622;49.972;8.452;2022-11-24T07:22:57;100098.81;;;6.86;100.00
56876;BME280;42622;49.972;8.452;2022-11-24T07:25:24;100103.28;;;6.84;100.00
56876;BME280;42622;49.972;8.452;2022-11-24T07:27:58;100113.72;;;6.86;100.00
56876;BME280;42622;49.972;8.452;2022-11-24T07:30:26;100118.13;;;6.85;100.00
56876;BME280;42622;49.972;8.452;2022-11-24T07:33:01;100108.47;;;6.86;100.00
56876;BME280;42622;49.972;8.452;2022-11-24T07:35:29;100115.41;;;6.87;100.00
56876;BME280;42622;49.972;8.452;2022-11-24T07:37:57;100117.09;;;6.88;100.00
56876;BME280;42622;49.972;8.452;2022-11-24T07:40:25;100126.44;;;6.93;100.00
56876;BME280;42622;49.972;8.452;2022-11-24T07:42:51;100123.69;;;6.95;100.00
56876;BME280;42622;49.972;8.452;2022-11-24T07:45:17;100123.63;;;6.97;100.00
56876;BME280;42622;49.972;8.452;2022-11-24T07:47:43;100138.16;;;7.02;100.00
56876;BME280;42622;49.972;8.452;2022-11-24T07:50:09;100134.44;;;7.06;100.00
56876;BME280;42622;49.972;8.452;2022-11-24T07:52:36;100138.59;;;7.10;100.00
56876;BME280;42622;49.972;8.452;2022-11-24T07:55:03;100143.41;;;7.18;100.00
56876;BME280;42622;49.972;8.452;2022-11-24T07:57:30;100138.72;;;7.23;100.00
56876;BME280;42622;49.972;8.452;2022-11-24T07:59:55;100151.56;;;7.28;100.00
56876;BME280;42622;49.972;8.452;2022-11-24T08:02:21;100145.41;;;7.29;100.00
56876;BME280;42622;49.972;8.452;2022-11-24T08:04:47;100146.31;;;7.28;100.00
56876;BME280;42622;49.972;8.452;2022-11-24T08:07:13;100162.03;;;7.29;100.00
56876;BME280;42622;49.972;8.452;2022-11-24T08:09:38;100169.06;;;7.29;100.00
56876;BME280;42622;49.972;8.452;2022-11-24T08:12:04;100158.56;;;7.29;100.00
56876;BME280;42622;49.972;8.452;2022-11-24T08:14:30;100156.28;;;7.23;100.00
56876;BME280;42622;49.972;8.452;2022-11-24T08:16:57;100165.94;;;7.22;100.00
56876;BME280;42622;49.972;8.452;2022-11-24T08:19:23;100174.50;;;7.26;100.00
56876;BME280;42622;49.972;8.452;2022-11-24T08:21:49;100178.63;;;7.30;100.00
56876;BME280;42622;49.972;8.452;2022-11-24T08:24:15;100180.16;;;7.34;100.00
56876;BME280;42622;49.972;8.452;2022-11-24T08:26:42;100180.91;;;7.36;100.00
56876;BME280;42622;49.972;8.452;2022-11-24T08:29:08;100188.81;;;7.36;100.00
56876;BME280;42622;49.972;8.452;2022-11-24T08:31:38;100191.50;;;7.34;100.00
56876;BME280;42622;49.972;8.452;2022-11-24T08:34:05;100198.72;;;7.31;100.00
56876;BME280;42622;49.972;8.452;2022-11-24T08:36:33;100206.91;;;7.26;100.00
56876;BME280;42622;49.972;8.452;2022-11-24T08:38:59;100204.88;;;7.15;100.00
56876;BME280;42622;49.972;8.452;2022-11-24T08:41:27;100209.38;;;7.13;100.00
56876;BME280;42622;49.972;8.452;2022-11-24T08:43:54;100202.34;;;7.14;100.00
56876;BME280;42622;49.972;8.452;2022-11-24T08:46:20;100203.88;;;7.18;100.00
56876;BME280;42622;49.972;8.452;2022-11-24T08:48:48;100198.34;;;7.23;100.00
56876;BME280;42622;49.972;8.452;2022-11-24T08:51:19;100202.47;;;7.27;100.00
56876;BME280;42622;49.972;8.452;2022-11-24T08:53:47;100196.03;;;7.32;100.00
56876;BME280;42622;49.972;8.452;2022-11-24T08:56:13;100196.53;;;7.39;100.00
56876;BME280;42622;49.972;8.452;2022-11-24T08:58:40;100209.28;;;7.45;100.00
56876;BME280;42622;49.972;8.452;2022-11-24T09:01:15;100218.34;;;7.55;100.00
56876;BME280;42622;49.972;8.452;2022-11-24T09:03:46;100223.06;;;7.64;100.00
56876;BME280;42622;49.972;8.452;2022-11-24T09:06:14;100224.47;;;7.70;100.00
56876;BME280;42622;49.972;8.452;2022-11-24T09:08:40;100224.41;;;7.72;100.00
56876;BME280;42622;49.972;8.452;2022-11-24T09:11:12;100224.41;;;7.72;100.00
56876;BME280;42622;49.972;8.452;2022-11-24T09:13:39;100234.75;;;7.75;100.00
56876;BME280;42622;49.972;8.452;2022-11-24T09:16:12;100227.53;;;7.78;100.00
56876;BME280;42622;49.972;8.452;2022-11-24T09:18:40;100233.44;;;7.82;100.00
56876;BME280;42622;49.972;8.452;2022-11-24T09:21:15;100237.69;;;7.84;100.00
56876;BME280;42622;49.972;8.452;2022-11-24T09:23:42;100234.84;;;7.87;100.00
56876;BME280;42622;49.972;8.452;2022-11-24T09:26:21;100236.28;;;7.93;100.00
56876;BME280;42622;49.972;8.452;2022-11-24T09:28:47;100231.56;;;7.98;100.00
56876;BME280;42622;49.972;8.452;2022-11-24T09:31:16;100233.84;;;8.04;100.00
56876;BME280;42622;49.972;8.452;2022-11-24T09:33:43;100236.13;;;8.10;100.00
56876;BME280;42622;49.972;8.452;2022-11-24T09:36:09;100252.41;;;8.17;100.00
56876;BME280;42622;49.972;8.452;2022-11-24T09:38:35;100258.97;;;8.24;100.00
56876;BME280;42622;49.972;8.452;2022-11-24T09:41:20;100256.06;;;8.29;100.00
56876;BME280;42622;49.972;8.452;2022-11-24T09:44:40;100254.94;;;8.33;100.00
56876;BME280;42622;49.972;8.452;2022-11-24T09:50:21;100259.66;;;8.56;100.00
56876;BME280;42622;49.972;8.452;2022-11-24T09:53:07;100269.44;;;8.69;100.00
56876;BME280;42622;49.972;8.452;2022-11-24T09:55:58;100274.91;;;8.80;100.00
56876;BME280;42622;49.972;8.452;2022-11-24T10:01:19;100275.97;;;8.90;100.00
56876;BME280;42622;49.972;8.452;2022-11-24T10:03:51;100283.81;;;8.92;100.00
56876;BME280;42622;49.972;8.452;2022-11-24T10:06:30;100290.50;;;8.83;100.00
56876;BME280;42622;49.972;8.452;2022-11-24T10:09:28;100291.16;;;8.86;100.00
56876;BME280;42622;49.972;8.452;2022-11-24T10:15:32;100292.56;;;8.92;100.00
56876;BME280;42622;49.972;8.452;2022-11-24T10:27:25;100296.53;;;9.26;100.00
56876;BME280;42622;49.972;8.452;2022-11-24T10:29:54;100303.31;;;9.30;100.00
56876;BME280;42622;49.972;8.452;2022-11-24T10:32:36;100295.09;;;9.35;100.00
56876;BME280;42622;49.972;8.452;2022-11-24T10:35:21;100300.63;;;9.45;100.00
56876;BME280;42622;49.972;8.452;2022-11-24T10:40:57;100300.81;;;9.69;100.00
56876;BME280;42622;49.972;8.452;2022-11-24T10:43:30;100298.81;;;9.85;100.00
56876;BME280;42622;49.972;8.452;2022-11-24T10:46:10;100295.56;;;9.94;100.00
56876;BME280;42622;49.972;8.452;2022-11-24T10:48:51;100301.38;;;9.99;100.00
56876;BME280;42622;49.972;8.452;2022-11-24T10:54:06;100294.22;;;10.01;100.00
56876;BME280;42622;49.972;8.452;2022-11-24T10:56:44;100307.41;;;10.01;100.00
56876;BME280;42622;49.972;8.452;2022-11-24T10:59:31;100312.91;;;9.98;100.00
56876;BME280;42622;49.972;8.452;2022-11-24T11:02:02;100314.50;;;10.01;100.00
56876;BME280;42622;49.972;8.452;2022-11-24T11:04:48;100313.84;;;10.10;100.00
56876;BME280;42622;49.972;8.452;2022-11-24T11:07:20;100322.34;;;10.15;100.00
56876;BME280;42622;49.972;8.452;2022-11-24T11:09:49;100319.50;;;10.18;100.00
56876;BME280;42622;49.972;8.452;2022-11-24T11:12:35;100321.94;;;10.21;100.00
56876;BME280;42622;49.972;8.452;2022-11-24T11:15:22;100318.59;;;10.32;100.00
56876;BME280;42622;49.972;8.452;2022-11-24T11:17:55;100323.44;;;10.38;100.00
56876;BME280;42622;49.972;8.452;2022-11-24T11:20:31;100319.22;;;10.36;100.00
56876;BME280;42622;49.972;8.452;2022-11-24T11:23:25;100326.41;;;10.34;100.00
56876;BME280;42622;49.972;8.452;2022-11-24T11:31:37;100336.81;;;10.22;100.00
56876;BME280;42622;49.972;8.452;2022-11-24T11:36:48;100337.56;;;10.12;100.00
56876;BME280;42622;49.972;8.452;2022-11-24T11:39:34;100337.22;;;10.03;100.00
56876;BME280;42622;49.972;8.452;2022-11-24T11:47:32;100349.13;;;9.96;100.00
56876;BME280;42622;49.972;8.452;2022-11-24T11:50:01;100348.72;;;10.02;100.00
56876;BME280;42622;49.972;8.452;2022-11-24T11:52:56;100361.53;;;10.09;100.00
56876;BME280;42622;49.972;8.452;2022-11-24T12:06:52;100362.16;;;10.12;100.00
56876;BME280;42622;49.972;8.452;2022-11-24T12:10:02;100367.31;;;10.14;100.00
56876;BME280;42622;49.972;8.452;2022-11-24T12:13:17;100368.53;;;10.22;100.00
56876;BME280;42622;49.972;8.452;2022-11-24T12:22:08;100368.50;;;11.61;95.86
56876;BME280;42622;49.972;8.452;2022-11-24T12:24:54;100360.66;;;13.87;85.83
56876;BME280;42622;49.972;8.452;2022-11-24T12:28:01;100375.34;;;15.96;75.59
56876;BME280;42622;49.972;8.452;2022-11-24T12:34:22;100378.59;;;14.69;73.95
56876;BME280;42622;49.972;8.452;2022-11-24T12:43:21;100387.09;;;13.34;76.15
56876;BME280;42622;49.972;8.452;2022-11-24T12:46:22;100379.50;;;12.96;75.08
56876;BME280;42622;49.972;8.452;2022-11-24T12:49:28;100379.75;;;12.24;75.90
56876;BME280;42622;49.972;8.452;2022-11-24T12:52:27;100374.69;;;11.49;78.24
56876;BME280;42622;49.972;8.452;2022-11-24T12:54:59;100385.22;;;11.62;78.93
56876;BME280;42622;49.972;8.452;2022-11-24T12:57:40;100383.66;;;12.54;75.07
56876;BME280;42622;49.972;8.452;2022-11-24T13:00:28;100390.47;;;12.80;75.17
56876;BME280;42622;49.972;8.452;2022-11-24T13:06:51;100394.09;;;14.22;70.45
56876;BME280;42622;49.972;8.452;2022-11-24T13:09:23;100398.75;;;14.30;67.97
56876;BME280;42622;49.972;8.452;2022-11-24T13:11:52;100393.91;;;14.14;67.15
56876;BME280;42622;49.972;8.452;2022-11-24T13:14:33;100400.38;;;14.21;64.70
56876;BME280;42622;49.972;8.452;2022-11-24T13:17:37;100402.13;;;14.64;64.09
56876;BME280;42622;49.972;8.452;2022-11-24T13:20:25;100399.03;;;13.95;64.31
56876;BME280;42622;49.972;8.452;2022-11-24T13:23:03;100399.59;;;12.54;66.34
56876;BME280;42622;49.972;8.452;2022-11-24T13:25:33;100396.28;;;12.39;66.78
56876;BME280;42622;49.972;8.452;2022-11-24T13:28:52;100406.34;;;11.87;68.42
56876;BME280;42622;49.972;8.452;2022-11-24T13:31:21;100405.44;;;11.26;70.57
56876;BME280;42622;49.972;8.452;2022-11-24T13:33:47;100404.22;;;10.93;71.36
56876;BME280;42622;49.972;8.452;2022-11-24T13:42:02;100407.38;;;10.47;73.46
56876;BME280;42622;49.972;8.452;2022-11-24T13:44:42;100411.59;;;10.37;73.81
56876;BME280;42622;49.972;8.452;2022-11-24T13:47:40;100406.19;;;10.26;74.30
56876;BME280;42622;49.972;8.452;2022-11-24T13:53:06;100422.06;;;10.12;74.46
56876;BME280;42622;49.972;8.452;2022-11-24T13:56:07;100411.38;;;10.00;75.42
56876;BME280;42622;49.972;8.452;2022-11-24T13:58:55;100411.00;;;9.92;76.28
56876;BME280;42622;49.972;8.452;2022-11-24T14:01:31;100408.03;;;9.84;76.38
56876;BME280;42622;49.972;8.452;2022-11-24T14:04:15;100406.72;;;9.77;77.67
56876;BME280;42622;49.972;8.452;2022-11-24T14:09:30;100399.41;;;9.68;78.42
56876;BME280;42622;49.972;8.452;2022-11-24T14:14:49;100401.59;;;9.61;78.68
56876;BME280;42622;49.972;8.452;2022-11-24T14:17:20;100403.88;;;9.53;79.38
56876;BME280;42622;49.972;8.452;2022-11-24T14:19:50;100397.75;;;9.52;79.96
56876;BME280;42622;49.972;8.452;2022-11-24T14:22:24;100396.91;;;9.52;80.15
56876;BME280;42622;49.972;8.452;2022-11-24T14:24:59;100401.63;;;9.47;81.45
56876;BME280;42622;49.972;8.452;2022-11-24T14:32:38;100412.84;;;9.36;82.27
56876;BME280;42622;49.972;8.452;2022-11-24T14:38:05;100411.16;;;9.35;82.54
56876;BME280;42622;49.972;8.452;2022-11-24T14:40:50;100407.31;;;9.26;83.03
56876;BME280;42622;49.972;8.452;2022-11-24T14:46:07;100415.06;;;9.15;84.69
56876;BME280;42622;49.972;8.452;2022-11-24T14:48:50;100414.38;;;9.12;84.76
56876;BME280;42622;49.972;8.452;2022-11-24T14:51:36;100418.91;;;9.09;84.93
56876;BME280;42622;49.972;8.452;2022-11-24T14:54:19;100422.09;;;9.00;85.98
56876;BME280;42622;49.972;8.452;2022-11-24T14:57:05;100414.78;;;8.91;86.12
56876;BME280;42622;49.972;8.452;2022-11-24T15:00:15;100419.88;;;8.80;86.46
56876;BME280;42622;49.972;8.452;2022-11-24T15:05:49;100419.06;;;8.64;88.45
56876;BME280;42622;49.972;8.452;2022-11-24T15:08:17;100429.41;;;8.52;88.14